Red Oak Municipal Airport
Tuesday 9:35 AM
Weather Sunny
VFR
Temperature 68°
Dew Point 52°
Feels Like 68°
Relative Humidity 56
%
Visibility 10
mi
Pressure 1020.0
mb
Wind Direction WSW
Wind Speed 12
mph
Last Hour Precip 0.00
"
KRDK 281435Z AUTO 25010KT 10SM CLR 20/11 A3012 RMK AO2

Recent Observations

Time Present Weather Temp DP Feels RH% Vsby Pressure Ceiling Direction Speed Gust 1h Precip
9:35AM
VFR
68° 52° 68° 56
%
10
mi
1020.0
mb
None WSW 12
mph
0.00"
KRDK 281435Z AUTO 25010KT 10SM CLR 20/11 A3012 RMK AO2
9:15AM
VFR
68° 54° 68° 60
%
10
mi
1020.0
mb
None WSW 7
mph
0.00"
KRDK 281415Z AUTO 25006KT 10SM CLR 20/12 A3012 RMK AO2
8:55AM
VFR
66° 54° 66° 64
%
10
mi
1020.0
mb
None SW 8
mph
0.00"
KRDK 281355Z AUTO 22007KT 10SM CLR 19/12 A3012 RMK AO2
8:35AM
VFR
64° 54° 64° 68
%
10
mi
1019.6
mb
None SW 7
mph
0.00"
KRDK 281335Z AUTO 22006KT 10SM CLR 18/12 A3011 RMK AO2
8:15AM
VFR
63° 52° 63° 68
%
10
mi
1019.6
mb
None SSW 5
mph
0.00"
KRDK 281315Z AUTO 21004KT 10SM CLR 17/11 A3011 RMK AO2
7:55AM
VFR
59° 55° 59° 88
%
10
mi
1019.6
mb
None None Calm 0.00"
KRDK 281255Z AUTO 00000KT 10SM CLR 15/13 A3011 RMK AO2
7:35AM
VFR
57° 55° 57° 94
%
10
mi
1019.6
mb
None None Calm 0.00"
KRDK 281235Z AUTO 00000KT 10SM CLR 14/13 A3011 RMK AO2
7:15AM
VFR
55° 54° 55° 94
%
10
mi
1019.3
mb
None S 5
mph
0.00"
KRDK 281215Z AUTO 19004KT 10SM CLR 13/12 A3010 RMK AO2
6:55AM
VFR
54° 54° 54° 100
%
10
mi
1019.3
mb
None None Calm 0.00"
KRDK 281155Z AUTO 00000KT 10SM CLR 12/12 A3010 RMK AO2
6:35AM
VFR
50° 50° 50° 100
%
10
mi
1019.3
mb
None None Calm 0.00"
KRDK 281135Z AUTO 00000KT 10SM CLR 10/10 A3010 RMK AO2
6:15AM
VFR
48° 48° 48° 100
%
10
mi
1019.3
mb
None None Calm 0.00"
KRDK 281115Z AUTO 00000KT 10SM CLR 09/09 A3010 RMK AO2
5:55AM
VFR
48° 48° 47° 100
%
10
mi
1019.3
mb
None SSW 3
mph
0.00"
KRDK 281055Z AUTO 20003KT 10SM CLR 09/09 A3010 RMK AO2
5:35AM
VFR
52° 50° 52° 94
%
10
mi
1019.0
mb
None None Calm 0.00"
KRDK 281035Z AUTO 00000KT 10SM CLR 11/10 A3009 RMK AO2
5:15AM
VFR
50° 50° 50° 100
%
10
mi
1019.0
mb
None None Calm 0.00"
KRDK 281015Z AUTO 00000KT 10SM CLR 10/10 A3009 RMK AO2
4:55AM
VFR
52° 50° 52° 94
%
10
mi
1019.0
mb
None None Calm 0.00"
KRDK 280955Z AUTO 00000KT 10SM CLR 11/10 A3009 RMK AO2
4:35AM
VFR
52° 48° 52° 87
%
10
mi
1018.6
mb
None None Calm 0.00"
KRDK 280935Z AUTO 00000KT 10SM CLR 11/09 A3008 RMK AO2
4:15AM
VFR
54° 48° 54° 82
%
10
mi
1018.3
mb
None None Calm 0.00"
KRDK 280915Z AUTO 00000KT 10SM CLR 12/09 A3007 RMK AO2
3:55AM
VFR
55° 48° 55° 77
%
10
mi
1018.3
mb
None E 5
mph
0.00"
KRDK 280855Z AUTO 09004KT 10SM CLR 13/09 A3007 RMK AO2
3:35AM
VFR
57° 48° 57° 72
%
10
mi
1018.3
mb
None None Calm 0.00"
KRDK 280835Z AUTO 00000KT 10SM CLR 14/09 A3007 RMK AO2
3:15AM
VFR
59° 48° 59° 67
%
10
mi
1017.9
mb
None NNW 6
mph
0.00"
KRDK 280815Z AUTO 33005KT 10SM CLR 15/09 A3006 RMK AO2
Click here to show this page without METARs/TAFs included